Time;durP1;ratioP1;P1;durP2;ratioP2;P2;SDS_P1;SDS_P2;PMS_P1;PMS_P2;Temp;Humidity;BMP_temperature;BMP_pressure;BME280_temperature;BME280_humidity;BME280_pressure;Samples;Min_cycle;Max_cycle;Signal;HPM_P1;HPM_P2
2020/12/15 00:02:23;;;;;;;;;;;;;;;5.11;72.06;99947.03;5050576;28;19925;-71
2020/12/15 00:04:49;;;;;;;;;;;;;;;5.10;72.25;99944.50;5014558;28;19929;-71
2020/12/15 00:07:16;;;;;;;;;;;;;;;5.01;73.10;99947.31;5033558;28;20371;-71
2020/12/15 00:09:42;;;;;;;;;;;;;;;5.05;72.23;99939.66;5047714;28;20454;-71
2020/12/15 00:12:09;;;;;;;;;;;;;;;5.00;72.54;99951.03;5033131;28;20419;-71
2020/12/15 00:14:35;;;;;;;;;;;;;;;5.03;72.46;99949.81;5032940;28;19931;-71
2020/12/15 00:17:01;;;;;;;;;;;;;;;5.05;72.73;99951.31;5040786;28;20011;-71
2020/12/15 00:19:29;;;;;;;;;;;;;;;5.04;72.74;99948.78;5049413;28;19925;-71
2020/12/15 00:21:55;;;;;;;;;;;;;;;4.98;72.16;99944.97;5029059;28;20015;-71
2020/12/15 00:24:21;;;;;;;;;;;;;;;4.99;72.76;99932.31;5049299;28;20146;-71
2020/12/15 00:26:48;;;;;;;;;;;;;;;4.94;72.23;99942.84;5031705;28;20383;-71
2020/12/15 00:29:14;;;;;;;;;;;;;;;4.95;72.53;99949.91;5039979;28;19931;-71
2020/12/15 00:31:41;;;;;;;;;;;;;;;4.92;72.79;99939.47;5016759;28;19975;-71
2020/12/15 00:34:07;;;;;;;;;;;;;;;4.90;72.62;99950.47;5017621;28;19926;-71
2020/12/15 00:36:34;;;;;;;;;;;;;;;4.92;73.36;99952.97;5038743;28;20449;-71
2020/12/15 00:39:00;;;;;;;;;;;;;;;4.94;72.45;99949.06;5035999;28;20039;-71
2020/12/15 00:41:26;;;;;;;;;;;;;;;4.92;72.74;99956.50;5050993;28;19975;-71
2020/12/15 00:43:54;;;;;;;;;;;;;;;4.96;72.85;99962.38;5047493;28;20015;-70
2020/12/15 00:46:20;;;;;;;;;;;;;;;5.01;72.91;99963.50;5047801;28;20461;-70
2020/12/15 00:48:49;;;;;;;;;;;;;;;5.02;72.10;99962.47;5027865;28;19981;-71
2020/12/15 00:51:16;;;;;;;;;;;;;;;5.08;72.39;99963.59;5056108;28;20410;-71
2020/12/15 00:53:46;;;;;;;;;;;;;;;5.11;71.87;99963.22;5047823;28;19932;-70
2020/12/15 00:56:14;;;;;;;;;;;;;;;5.17;72.21;99958.94;5047807;28;19925;-71
2020/12/15 00:58:41;;;;;;;;;;;;;;;5.18;71.58;99966.88;5048149;28;19929;-71
2020/12/15 01:01:09;;;;;;;;;;;;;;;5.24;71.25;99976.06;5015027;28;19929;-71
2020/12/15 01:03:36;;;;;;;;;;;;;;;5.24;71.40;99968.78;5036345;28;19925;-71
2020/12/15 01:06:03;;;;;;;;;;;;;;;5.22;71.89;99953.78;5035781;28;20360;-70
2020/12/15 01:08:30;;;;;;;;;;;;;;;5.16;71.79;99933.81;5051056;28;19929;-70
2020/12/15 01:11:10;;;;;;;;;;;;;;;5.01;72.42;99923.00;5054870;28;19956;-70
2020/12/15 01:13:36;;;;;;;;;;;;;;;5.05;71.83;99918.06;5036585;28;19995;-71
2020/12/15 01:16:04;;;;;;;;;;;;;;;5.01;71.77;99911.38;5052730;28;19925;-71
2020/12/15 01:18:31;;;;;;;;;;;;;;;5.02;71.69;99910.34;5035681;28;19932;-71
2020/12/15 01:20:57;;;;;;;;;;;;;;;5.05;71.84;99924.31;5049388;28;19925;-71
2020/12/15 01:23:24;;;;;;;;;;;;;;;5.11;71.37;99941.63;5039525;28;19925;-70
2020/12/15 01:25:58;;;;;;;;;;;;;;;5.09;71.75;99930.16;5020584;28;20452;-71
2020/12/15 01:28:25;;;;;;;;;;;;;;;5.12;71.84;99928.97;5052085;28;19983;-71
2020/12/15 01:30:51;;;;;;;;;;;;;;;5.18;71.28;99929.06;5035875;28;20001;-71
2020/12/15 01:33:38;;;;;;;;;;;;;;;5.18;70.98;99920.94;5024953;28;19924;-69
2020/12/15 01:36:30;;;;;;;;;;;;;;;5.17;71.15;99927.38;5038675;28;19931;-69
2020/12/15 01:39:01;;;;;;;;;;;;;;;5.27;70.79;99932.47;5036256;28;20287;-69
2020/12/15 01:41:42;;;;;;;;;;;;;;;5.20;70.63;99926.16;5037536;28;19928;-69
2020/12/15 01:44:09;;;;;;;;;;;;;;;5.28;70.01;99934.97;5051756;28;20410;-69
2020/12/15 01:46:41;;;;;;;;;;;;;;;5.31;70.34;99922.97;5036221;28;19933;-69
2020/12/15 01:49:09;;;;;;;;;;;;;;;5.25;70.33;99911.03;5051885;28;20015;-68
2020/12/15 01:51:44;;;;;;;;;;;;;;;5.23;70.23;99899.59;5033008;28;19931;-71
2020/12/15 01:54:10;;;;;;;;;;;;;;;5.27;69.86;99900.88;5043423;28;20398;-69
2020/12/15 01:56:44;;;;;;;;;;;;;;;5.33;69.91;99897.44;5037613;28;19979;-69
2020/12/15 01:59:18;;;;;;;;;;;;;;;5.26;69.88;99893.81;5019499;28;20473;-69
2020/12/15 02:01:46;;;;;;;;;;;;;;;5.34;69.70;99903.66;5032647;28;19925;-69
2020/12/15 02:04:21;;;;;;;;;;;;;;;5.32;69.74;99903.03;5047633;28;20406;-69
2020/12/15 02:07:02;;;;;;;;;;;;;;;5.34;68.83;99899.09;5050445;28;19933;-69
2020/12/15 02:09:29;;;;;;;;;;;;;;;5.44;68.64;99896.09;5034359;28;20031;-69
2020/12/15 02:12:14;;;;;;;;;;;;;;;5.35;68.58;99900.78;5038046;28;20067;-69
2020/12/15 02:14:43;;;;;;;;;;;;;;;5.32;69.04;99901.16;5042020;28;20014;-69
2020/12/15 02:17:13;;;;;;;;;;;;;;;5.32;68.62;99890.34;5019323;28;19924;-69
2020/12/15 02:20:09;;;;;;;;;;;;;;;5.32;68.53;99893.06;5038716;28;20011;-69
2020/12/15 02:22:50;;;;;;;;;;;;;;;5.32;68.10;99887.66;5021938;28;19935;-69
2020/12/15 02:25:16;;;;;;;;;;;;;;;5.35;68.27;99881.88;5014176;28;19925;-69
2020/12/15 02:27:43;;;;;;;;;;;;;;;5.36;67.81;99880.00;5051024;28;19925;-69
2020/12/15 02:30:09;;;;;;;;;;;;;;;5.34;67.55;99893.69;5052019;28;19970;-69
2020/12/15 02:32:38;;;;;;;;;;;;;;;5.41;67.90;99891.09;5034767;28;19925;-69
2020/12/15 02:35:09;;;;;;;;;;;;;;;5.42;67.24;99883.81;5035295;28;19925;-69
2020/12/15 02:37:36;;;;;;;;;;;;;;;5.40;67.29;99884.00;5052111;28;19956;-69
2020/12/15 02:40:04;;;;;;;;;;;;;;;5.44;66.86;99890.69;5034601;28;20382;-70
2020/12/15 02:42:59;;;;;;;;;;;;;;;5.46;66.96;99887.81;5038210;28;19925;-70
2020/12/15 02:45:27;;;;;;;;;;;;;;;5.45;67.03;99896.94;5034286;28;19925;-70
2020/12/15 02:47:54;;;;;;;;;;;;;;;5.45;66.37;99900.47;5014620;28;19976;-69
2020/12/15 02:50:24;;;;;;;;;;;;;;;5.43;66.64;99885.50;5032872;28;19925;-70
2020/12/15 02:53:00;;;;;;;;;;;;;;;5.44;66.09;99893.41;5035314;28;19928;-70
2020/12/15 02:55:33;;;;;;;;;;;;;;;5.44;67.08;99887.16;5051058;28;19925;-69
2020/12/15 02:58:00;;;;;;;;;;;;;;;5.41;66.49;99884.84;5049040;28;19924;-70
2020/12/15 03:00:26;;;;;;;;;;;;;;;5.29;66.99;99901.53;5033534;28;20403;-70
2020/12/15 03:02:52;;;;;;;;;;;;;;;5.35;67.49;99886.44;5033142;28;19975;-70
2020/12/15 03:05:36;;;;;;;;;;;;;;;5.25;67.14;99889.44;5034684;28;20013;-70
2020/12/15 03:08:03;;;;;;;;;;;;;;;5.27;67.29;99894.66;5034787;28;19925;-69
2020/12/15 03:10:30;;;;;;;;;;;;;;;5.29;66.16;99893.44;5048704;28;19932;-70
2020/12/15 03:12:57;;;;;;;;;;;;;;;5.36;65.95;99882.72;5032302;28;20468;-70
2020/12/15 03:15:24;;;;;;;;;;;;;;;5.36;66.55;99894.34;5032589;28;19925;-70
2020/12/15 03:17:50;;;;;;;;;;;;;;;5.29;66.38;99901.53;5031739;28;20375;-69
2020/12/15 03:20:17;;;;;;;;;;;;;;;5.37;65.99;99909.53;5032193;28;19932;-69
2020/12/15 03:22:45;;;;;;;;;;;;;;;5.39;66.45;99902.06;5031810;28;19925;-69
2020/12/15 03:25:19;;;;;;;;;;;;;;;5.43;65.34;99893.59;5032313;28;20016;-69
2020/12/15 03:27:50;;;;;;;;;;;;;;;5.50;65.85;99897.22;5048565;28;19925;-69
2020/12/15 03:30:24;;;;;;;;;;;;;;;5.46;65.14;99901.31;5037877;28;20362;-70
2020/12/15 03:32:51;;;;;;;;;;;;;;;5.45;65.72;99902.34;5051681;28;19929;-70
2020/12/15 03:35:17;;;;;;;;;;;;;;;5.46;65.66;99894.06;5033784;28;20417;-70
2020/12/15 03:37:43;;;;;;;;;;;;;;;5.43;65.18;99909.81;5033450;28;19931;-70
2020/12/15 03:40:10;;;;;;;;;;;;;;;5.40;65.41;99905.63;5033455;28;19928;-70
2020/12/15 03:42:55;;;;;;;;;;;;;;;5.32;66.65;99906.56;5036248;28;19932;-69
2020/12/15 03:45:30;;;;;;;;;;;;;;;5.24;66.60;99911.22;5049958;28;20342;-69
2020/12/15 03:47:57;;;;;;;;;;;;;;;5.36;66.08;99917.81;5033465;28;19925;-69
2020/12/15 03:50:24;;;;;;;;;;;;;;;5.48;65.58;99918.19;5049653;28;19956;-69
2020/12/15 03:52:50;;;;;;;;;;;;;;;5.53;65.23;99910.34;5033504;28;19935;-69
2020/12/15 03:55:23;;;;;;;;;;;;;;;5.50;65.35;99911.56;5018084;28;21395;-69
2020/12/15 03:58:00;;;;;;;;;;;;;;;5.39;65.92;99915.59;5034428;28;19929;-69
2020/12/15 04:00:36;;;;;;;;;;;;;;;5.33;66.37;99908.25;5035390;23;19929;-75
2020/12/15 04:03:11;;;;;;;;;;;;;;;5.34;66.84;99907.22;5039848;28;20023;-74
2020/12/15 04:05:58;;;;;;;;;;;;;;;5.37;66.17;99914.94;5047916;28;19929;-74
2020/12/15 04:08:29;;;;;;;;;;;;;;;5.28;66.73;99907.97;5032281;28;20739;-74
2020/12/15 04:10:56;;;;;;;;;;;;;;;5.31;66.38;99918.41;5031429;28;19924;-74
2020/12/15 04:13:31;;;;;;;;;;;;;;;5.33;66.39;99921.75;5032796;28;20421;-73
2020/12/15 04:16:03;;;;;;;;;;;;;;;5.26;66.69;99919.97;5016632;28;19925;-73
2020/12/15 04:18:35;;;;;;;;;;;;;;;5.27;66.61;99922.50;5046282;28;19971;-75
2020/12/15 04:21:09;;;;;;;;;;;;;;;5.20;66.50;99924.28;5001743;28;19968;-74
2020/12/15 04:23:36;;;;;;;;;;;;;;;5.10;67.11;99921.06;5032170;28;19935;-75
2020/12/15 04:26:03;;;;;;;;;;;;;;;5.01;67.09;99922.16;5034475;28;19933;-73
2020/12/15 04:28:42;;;;;;;;;;;;;;;4.92;68.16;99924.13;5032512;28;20416;-73
2020/12/15 04:31:08;;;;;;;;;;;;;;;4.97;67.36;99926.25;5015802;28;19924;-73
2020/12/15 04:33:35;;;;;;;;;;;;;;;4.80;68.15;99925.63;5018687;28;19939;-74
2020/12/15 04:36:02;;;;;;;;;;;;;;;4.75;69.05;99932.59;5018586;28;20358;-73
2020/12/15 04:38:30;;;;;;;;;;;;;;;4.80;68.38;99935.59;5030421;28;19932;-73
2020/12/15 04:41:04;;;;;;;;;;;;;;;4.79;68.52;99923.13;5040798;28;20334;-74
2020/12/15 04:43:39;;;;;;;;;;;;;;;4.89;67.86;99923.66;5012317;28;19984;-74
2020/12/15 04:46:08;;;;;;;;;;;;;;;4.85;68.74;99933.16;5001455;28;19925;-74
2020/12/15 04:48:34;;;;;;;;;;;;;;;4.68;68.80;99933.34;5034079;28;19932;-74
2020/12/15 04:51:08;;;;;;;;;;;;;;;4.67;68.65;99920.88;5021003;28;19940;-73
2020/12/15 04:53:44;;;;;;;;;;;;;;;4.72;68.34;99923.84;5035395;28;19932;-74
2020/12/15 04:56:38;;;;;;;;;;;;;;;4.71;68.55;99922.19;5039269;28;19924;-74
2020/12/15 04:59:24;;;;;;;;;;;;;;;4.70;68.23;99916.97;5021364;28;19947;-73
2020/12/15 05:01:57;;;;;;;;;;;;;;;4.79;68.56;99910.44;5036075;28;19925;-73
2020/12/15 05:04:32;;;;;;;;;;;;;;;4.75;68.53;99905.63;5019306;28;19925;-73
2020/12/15 05:07:03;;;;;;;;;;;;;;;4.81;68.40;99910.28;5035356;28;20505;-73
2020/12/15 05:09:48;;;;;;;;;;;;;;;4.78;68.48;99895.28;5052429;28;20011;-74
2020/12/15 05:12:17;;;;;;;;;;;;;;;4.74;69.14;99910.16;5020230;28;19924;-73
2020/12/15 05:14:50;;;;;;;;;;;;;;;4.68;69.41;99903.66;5024999;28;19933;-74
2020/12/15 05:17:32;;;;;;;;;;;;;;;4.72;69.01;99896.84;5034962;28;20312;-74
2020/12/15 05:20:06;;;;;;;;;;;;;;;4.70;69.24;99903.47;5015345;28;19931;-74
2020/12/15 05:22:40;;;;;;;;;;;;;;;4.82;69.21;99901.16;5051486;28;20417;-74
2020/12/15 05:25:09;;;;;;;;;;;;;;;4.86;69.04;99891.63;5035636;28;20302;-74
2020/12/15 05:27:40;;;;;;;;;;;;;;;4.85;67.81;99889.97;5035691;28;20316;-73
2020/12/15 05:30:13;;;;;;;;;;;;;;;4.92;68.19;99902.50;5036104;28;19929;-74
2020/12/15 05:33:13;;;;;;;;;;;;;;;4.96;68.03;99903.81;5049123;28;19932;-74
2020/12/15 05:35:58;;;;;;;;;;;;;;;4.97;67.97;99910.06;5038437;28;19964;-75
2020/12/15 05:38:44;;;;;;;;;;;;;;;4.99;67.21;99905.31;5022113;28;20331;-73
2020/12/15 05:41:21;;;;;;;;;;;;;;;5.01;67.58;99912.19;5022391;28;19925;-74
2020/12/15 05:43:57;;;;;;;;;;;;;;;5.11;67.59;99916.47;4988936;28;20055;-72
2020/12/15 05:46:26;;;;;;;;;;;;;;;5.11;67.44;99919.19;5031505;28;19925;-73
2020/12/15 05:48:54;;;;;;;;;;;;;;;5.15;67.58;99920.50;4996436;28;19933;-73
2020/12/15 05:51:20;;;;;;;;;;;;;;;5.18;66.46;99928.22;4999582;28;19979;-73
2020/12/15 05:53:46;;;;;;;;;;;;;;;5.21;66.92;99920.53;5050353;28;19960;-73
2020/12/15 05:56:22;;;;;;;;;;;;;;;5.20;67.09;99916.16;5035870;28;20317;-73
2020/12/15 05:58:52;;;;;;;;;;;;;;;5.20;67.14;99915.38;5035595;28;19924;-72
2020/12/15 06:01:18;;;;;;;;;;;;;;;5.20;67.20;99904.56;5035522;28;20001;-73
2020/12/15 06:03:57;;;;;;;;;;;;;;;5.14;67.12;99887.25;5052197;28;20366;-73
2020/12/15 06:06:39;;;;;;;;;;;;;;;5.13;66.52;99899.06;5052754;28;19960;-73
2020/12/15 06:09:07;;;;;;;;;;;;;;;5.10;66.65;99893.19;5051572;28;19924;-73
2020/12/15 06:11:33;;;;;;;;;;;;;;;5.18;66.45;99906.59;5035430;28;19932;-73
2020/12/15 06:14:00;;;;;;;;;;;;;;;5.22;66.41;99903.31;5051380;28;19931;-73
2020/12/15 06:16:26;;;;;;;;;;;;;;;5.20;66.88;99905.38;5044068;28;19963;-74
2020/12/15 06:18:52;;;;;;;;;;;;;;;5.25;66.26;99897.53;5051582;28;19986;-74
2020/12/15 06:21:19;;;;;;;;;;;;;;;5.32;65.93;99901.16;5034914;28;19925;-74
2020/12/15 06:23:45;;;;;;;;;;;;;;;5.37;66.24;99895.19;5018703;28;19925;-74
2020/12/15 06:26:11;;;;;;;;;;;;;;;5.37;65.71;99901.44;5051079;28;20402;-74
2020/12/15 06:28:38;;;;;;;;;;;;;;;5.36;65.17;99899.75;5050758;28;19925;-74
2020/12/15 06:31:05;;;;;;;;;;;;;;;5.38;65.43;99899.56;5051274;28;19966;-74
2020/12/15 06:33:34;;;;;;;;;;;;;;;5.38;65.47;99888.75;5034806;28;20303;-74
2020/12/15 06:36:01;;;;;;;;;;;;;;;5.42;65.91;99908.13;5051255;28;19925;-75
2020/12/15 06:38:29;;;;;;;;;;;;;;;5.45;65.25;99900.47;5018808;28;19929;-74
2020/12/15 06:40:56;;;;;;;;;;;;;;;5.44;65.45;99906.06;5050940;28;20383;-73
2020/12/15 06:43:30;;;;;;;;;;;;;;;5.45;65.36;99902.34;5051940;28;19963;-73
2020/12/15 06:46:05;;;;;;;;;;;;;;;5.38;65.88;99905.81;5051075;28;19925;-73
2020/12/15 06:48:35;;;;;;;;;;;;;;;5.39;65.21;99898.53;5050748;28;19925;-73
2020/12/15 06:51:02;;;;;;;;;;;;;;;5.41;65.90;99892.94;5034774;28;19925;-73
2020/12/15 06:53:28;;;;;;;;;;;;;;;5.33;65.35;99894.72;5001936;28;20028;-73
2020/12/15 06:56:02;;;;;;;;;;;;;;;5.41;65.22;99890.25;5018161;28;19925;-73
2020/12/15 06:58:28;;;;;;;;;;;;;;;5.36;64.92;99897.06;5033428;28;19931;-74
2020/12/15 07:00:54;;;;;;;;;;;;;;;5.41;65.03;99901.06;5039313;28;19924;-73
2020/12/15 07:03:35;;;;;;;;;;;;;;;5.47;64.33;99911.94;5026565;28;19924;-74
2020/12/15 07:06:08;;;;;;;;;;;;;;;5.52;64.55;99903.25;5021051;28;20288;-75
2020/12/15 07:08:35;;;;;;;;;;;;;;;5.51;64.49;99896.19;5037169;28;20024;-74
2020/12/15 07:11:01;;;;;;;;;;;;;;;5.54;64.49;99903.91;5033109;28;20337;-73
2020/12/15 07:13:28;;;;;;;;;;;;;;;5.57;64.16;99911.63;5016702;28;20027;-74
2020/12/15 07:15:54;;;;;;;;;;;;;;;5.59;64.93;99920.38;5017079;28;19931;-73
2020/12/15 07:18:20;;;;;;;;;;;;;;;5.62;64.32;99915.41;5033499;28;19929;-74
2020/12/15 07:20:47;;;;;;;;;;;;;;;5.65;63.86;99917.75;5050075;28;20011;-74
2020/12/15 07:23:14;;;;;;;;;;;;;;;5.69;64.32;99921.75;5001519;28;19928;-73
2020/12/15 07:25:40;;;;;;;;;;;;;;;5.67;63.89;99929.19;5049943;28;19925;-74
2020/12/15 07:28:07;;;;;;;;;;;;;;;5.69;63.69;99923.59;5050175;28;19952;-74
2020/12/15 07:30:36;;;;;;;;;;;;;;;5.69;64.30;99918.19;5001794;28;20346;-73
2020/12/15 07:33:03;;;;;;;;;;;;;;;5.73;63.75;99925.75;5035963;28;19935;-73
2020/12/15 07:35:30;;;;;;;;;;;;;;;5.77;63.59;99923.50;5026293;28;19969;-74
2020/12/15 07:37:56;;;;;;;;;;;;;;;5.81;62.89;99913.97;4994642;28;19925;-74
2020/12/15 07:40:24;;;;;;;;;;;;;;;5.84;63.50;99919.00;5029817;28;19933;-74
2020/12/15 07:42:54;;;;;;;;;;;;;;;5.91;62.69;99924.47;5030165;28;19925;-74
2020/12/15 07:45:21;;;;;;;;;;;;;;;5.91;63.05;99916.34;5013588;28;19949;-73
2020/12/15 07:47:47;;;;;;;;;;;;;;;5.92;63.43;99926.16;5030019;28;19975;-73
2020/12/15 07:50:14;;;;;;;;;;;;;;;5.94;62.36;99918.69;4999830;28;20002;-72
2020/12/15 07:52:41;;;;;;;;;;;;;;;5.96;62.38;99914.75;5033778;28;19925;-73
2020/12/15 07:55:14;;;;;;;;;;;;;;;5.99;62.15;99919.78;5049994;28;19987;-74
2020/12/15 07:57:48;;;;;;;;;;;;;;;6.01;62.22;99914.19;5034516;28;20008;-73
2020/12/15 08:00:18;;;;;;;;;;;;;;;6.00;62.17;99913.34;5032939;28;19925;-74
2020/12/15 08:02:48;;;;;;;;;;;;;;;6.02;63.30;99913.97;5034125;28;19960;-73
2020/12/15 08:05:15;;;;;;;;;;;;;;;5.97;63.57;99902.06;5050035;28;19925;-74
2020/12/15 08:07:46;;;;;;;;;;;;;;;5.98;63.05;99910.00;5050824;28;19925;-74
2020/12/15 08:10:13;;;;;;;;;;;;;;;5.88;63.29;99914.88;5054122;28;19924;-74
2020/12/15 08:12:40;;;;;;;;;;;;;;;6.08;62.86;99922.34;5056186;28;20558;-73
2020/12/15 08:15:06;;;;;;;;;;;;;;;6.19;62.78;99919.13;5056702;28;19925;-75
2020/12/15 08:17:32;;;;;;;;;;;;;;;6.29;62.25;99927.75;5056180;28;19970;-73
2020/12/15 08:20:00;;;;;;;;;;;;;;;6.42;61.75;99927.03;5045067;28;19937;-73
2020/12/15 08:22:26;;;;;;;;;;;;;;;6.47;61.02;99932.69;5023439;28;19925;-74
2020/12/15 08:24:52;;;;;;;;;;;;;;;6.49;61.22;99945.00;5043903;28;19929;-73
2020/12/15 08:27:19;;;;;;;;;;;;;;;6.53;60.88;99957.09;5031631;28;20315;-74
2020/12/15 08:29:45;;;;;;;;;;;;;;;6.42;61.32;99933.28;5005343;28;19967;-74
2020/12/15 08:32:11;;;;;;;;;;;;;;;6.46;61.92;99945.38;5054194;28;19925;-73
2020/12/15 08:34:37;;;;;;;;;;;;;;;6.47;62.36;99944.34;5022433;28;19929;-74
2020/12/15 08:37:04;;;;;;;;;;;;;;;6.50;61.73;99943.13;5056855;28;19925;-74
2020/12/15 08:39:30;;;;;;;;;;;;;;;6.48;61.31;99937.91;5022949;28;19932;-74
2020/12/15 08:41:57;;;;;;;;;;;;;;;6.47;61.84;99930.81;5040033;28;19924;-74
2020/12/15 08:44:24;;;;;;;;;;;;;;;6.54;61.57;99937.13;5039686;28;19929;-73
2020/12/15 08:46:50;;;;;;;;;;;;;;;6.51;61.73;99940.22;5055982;28;19932;-74
2020/12/15 08:49:19;;;;;;;;;;;;;;;6.47;61.47;99941.66;5039640;28;19967;-74
2020/12/15 08:51:45;;;;;;;;;;;;;;;6.44;61.91;99947.44;5056265;28;19925;-74
2020/12/15 08:54:12;;;;;;;;;;;;;;;6.44;62.09;99942.03;5039489;28;19925;-74
2020/12/15 08:56:38;;;;;;;;;;;;;;;6.46;62.37;99939.97;5039393;28;20024;-73
2020/12/15 08:59:09;;;;;;;;;;;;;;;6.46;62.14;99929.13;5039082;28;20031;-74
2020/12/15 09:01:35;;;;;;;;;;;;;;;6.48;61.82;99932.50;5056065;28;20314;-74
2020/12/15 09:04:02;;;;;;;;;;;;;;;6.50;61.91;99935.00;5039634;28;20015;-74
2020/12/15 09:06:29;;;;;;;;;;;;;;;6.52;61.84;99939.19;5039477;28;20016;-74
2020/12/15 09:08:55;;;;;;;;;;;;;;;6.54;61.94;99936.28;5055367;28;20019;-74
2020/12/15 09:11:21;;;;;;;;;;;;;;;6.62;62.01;99936.13;5039444;28;19932;-73
2020/12/15 09:13:51;;;;;;;;;;;;;;;6.64;62.10;99931.34;5055867;28;20564;-73
2020/12/15 09:16:28;;;;;;;;;;;;;;;6.70;61.42;99935.97;5056154;28;19935;-74
2020/12/15 09:18:55;;;;;;;;;;;;;;;6.75;61.25;99936.22;5023420;28;19925;-74
2020/12/15 09:21:21;;;;;;;;;;;;;;;6.80;61.44;99938.34;5046504;28;19925;-74
2020/12/15 09:23:48;;;;;;;;;;;;;;;6.88;61.03;99938.19;5016585;28;20015;-73
2020/12/15 09:26:15;;;;;;;;;;;;;;;6.94;61.25;99940.06;5016163;28;19945;-73
2020/12/15 09:28:41;;;;;;;;;;;;;;;7.03;60.83;99938.88;5032299;28;19925;-73
2020/12/15 09:31:10;;;;;;;;;;;;;;;7.13;60.25;99927.69;5034298;28;20425;-73
2020/12/15 09:33:36;;;;;;;;;;;;;;;7.27;60.10;99932.97;5008112;28;20023;-74
2020/12/15 09:36:02;;;;;;;;;;;;;;;7.35;59.79;99935.50;5020073;28;19944;-75
2020/12/15 09:38:29;;;;;;;;;;;;;;;7.39;59.56;99930.50;5002798;28;19963;-74
2020/12/15 09:40:55;;;;;;;;;;;;;;;7.48;59.19;99925.75;5050058;28;19932;-74
2020/12/15 09:43:21;;;;;;;;;;;;;;;7.43;59.20;99934.50;5017575;28;19931;-74
2020/12/15 09:45:49;;;;;;;;;;;;;;;7.53;59.45;99936.81;5050195;28;19931;-74
2020/12/15 09:48:15;;;;;;;;;;;;;;;7.59;59.33;99930.59;5034251;28;20027;-74
2020/12/15 09:50:42;;;;;;;;;;;;;;;7.63;59.10;99926.41;5035137;28;19929;-73
2020/12/15 09:53:08;;;;;;;;;;;;;;;7.78;58.94;99916.25;5051951;28;20004;-74
2020/12/15 09:55:35;;;;;;;;;;;;;;;7.81;57.95;99912.28;5051905;28;19933;-75
2020/12/15 09:58:02;;;;;;;;;;;;;;;7.95;57.77;99914.81;5040730;28;20358;-73
2020/12/15 10:00:29;;;;;;;;;;;;;;;8.03;57.90;99916.47;5047426;23;20430;-69
2020/12/15 10:02:55;;;;;;;;;;;;;;;8.15;57.67;99914.00;5009783;28;19925;-69
2020/12/15 10:05:22;;;;;;;;;;;;;;;8.16;57.53;99913.78;5009635;28;20461;-69
2020/12/15 10:07:48;;;;;;;;;;;;;;;8.07;57.65;99918.59;5016440;28;19951;-69
2020/12/15 10:10:16;;;;;;;;;;;;;;;7.96;58.29;99921.09;5024247;28;19926;-69
2020/12/15 10:12:45;;;;;;;;;;;;;;;7.86;58.63;99920.66;5014170;28;19956;-69
2020/12/15 10:15:11;;;;;;;;;;;;;;;7.86;59.17;99921.47;5031741;28;19932;-69
2020/12/15 10:17:39;;;;;;;;;;;;;;;7.85;59.15;99922.53;5031472;28;20354;-69
2020/12/15 10:20:05;;;;;;;;;;;;;;;7.85;58.89;99925.25;5031801;28;20373;-69
2020/12/15 10:22:31;;;;;;;;;;;;;;;7.93;59.29;99922.34;5031123;28;19932;-69
2020/12/15 10:24:57;;;;;;;;;;;;;;;7.89;58.71;99915.66;5048193;28;19940;-69
2020/12/15 10:27:24;;;;;;;;;;;;;;;7.90;59.13;99906.47;5029783;28;19926;-70
2020/12/15 10:29:50;;;;;;;;;;;;;;;7.98;59.01;99902.69;5048218;28;19925;-70
2020/12/15 10:32:16;;;;;;;;;;;;;;;8.03;58.69;99897.50;5031973;28;20299;-69
2020/12/15 10:34:43;;;;;;;;;;;;;;;8.12;58.14;99890.00;5031772;28;19964;-69
2020/12/15 10:37:09;;;;;;;;;;;;;;;8.13;58.34;99888.94;5031270;28;19932;-70
2020/12/15 10:39:36;;;;;;;;;;;;;;;8.17;58.49;99890.19;5032366;28;19925;-69
2020/12/15 10:42:02;;;;;;;;;;;;;;;8.35;57.88;99893.16;5030877;28;19963;-69
2020/12/15 10:44:29;;;;;;;;;;;;;;;8.38;57.66;99892.72;5031150;28;19932;-70
2020/12/15 10:46:55;;;;;;;;;;;;;;;8.55;57.24;99890.44;5031000;28;19947;-70
2020/12/15 10:49:22;;;;;;;;;;;;;;;8.73;56.78;99902.28;5047286;28;19925;-70
2020/12/15 10:51:51;;;;;;;;;;;;;;;8.84;57.23;99903.53;5031034;28;19931;-69
2020/12/15 10:54:18;;;;;;;;;;;;;;;8.80;56.54;99901.44;5046898;28;19929;-69
2020/12/15 10:56:44;;;;;;;;;;;;;;;8.86;56.93;99900.59;5032694;28;19925;-70
2020/12/15 10:59:10;;;;;;;;;;;;;;;8.66;57.30;99908.81;5047429;28;19925;-69
2020/12/15 11:01:36;;;;;;;;;;;;;;;8.63;57.66;99914.66;5047455;28;19925;-69
2020/12/15 11:04:03;;;;;;;;;;;;;;;8.50;58.09;99912.78;5031208;28;19964;-69
2020/12/15 11:06:31;;;;;;;;;;;;;;;8.52;58.59;99912.56;5032066;28;19983;-70
2020/12/15 11:08:58;;;;;;;;;;;;;;;8.51;58.93;99914.44;5031036;28;19929;-69
2020/12/15 11:11:24;;;;;;;;;;;;;;;8.50;58.93;99912.78;5030818;28;19925;-70
2020/12/15 11:13:51;;;;;;;;;;;;;;;8.54;58.96;99916.75;5031751;28;20319;-70
2020/12/15 11:16:20;;;;;;;;;;;;;;;8.53;59.05;99920.50;5031051;28;20446;-69
2020/12/15 11:18:47;;;;;;;;;;;;;;;8.64;59.09;99925.31;5030412;28;19975;-70
2020/12/15 11:21:15;;;;;;;;;;;;;;;8.71;58.92;99917.97;5031276;28;19925;-70
2020/12/15 11:23:42;;;;;;;;;;;;;;;8.87;58.64;99924.00;5047211;28;19925;-69
2020/12/15 11:26:15;;;;;;;;;;;;;;;9.15;57.86;99921.00;5046233;28;19965;-70
2020/12/15 11:28:41;;;;;;;;;;;;;;;9.31;57.24;99924.09;5030189;28;19992;-70
2020/12/15 11:31:07;;;;;;;;;;;;;;;9.27;57.76;99931.03;5031468;28;19929;-69
2020/12/15 11:33:34;;;;;;;;;;;;;;;9.15;57.81;99938.16;5031688;28;19925;-70
2020/12/15 11:36:00;;;;;;;;;;;;;;;9.19;58.07;99939.41;5046850;28;20005;-70
2020/12/15 11:38:26;;;;;;;;;;;;;;;9.18;57.99;99936.91;5047236;28;19925;-70
2020/12/15 11:40:53;;;;;;;;;;;;;;;9.28;58.02;99915.53;5030340;28;20045;-70
2020/12/15 11:43:19;;;;;;;;;;;;;;;9.44;57.58;99927.81;5056494;28;20028;-69
2020/12/15 11:45:46;;;;;;;;;;;;;;;9.35;57.76;99928.06;5053196;28;19925;-69
2020/12/15 11:48:12;;;;;;;;;;;;;;;9.47;57.46;99935.53;5048897;28;20268;-69
2020/12/15 11:50:39;;;;;;;;;;;;;;;9.48;57.43;99931.75;5015493;28;19926;-69
2020/12/15 11:53:05;;;;;;;;;;;;;;;9.47;57.46;99927.38;5047051;28;19925;-69
2020/12/15 11:55:32;;;;;;;;;;;;;;;9.57;57.53;99930.47;5046342;28;19932;-70
2020/12/15 11:57:58;;;;;;;;;;;;;;;9.52;57.72;99920.25;5046045;28;19968;-70
2020/12/15 12:00:25;;;;;;;;;;;;;;;9.50;57.44;99926.94;5030826;28;20371;-69
2020/12/15 12:02:51;;;;;;;;;;;;;;;9.43;57.79;99917.97;5013924;28;20019;-70
2020/12/15 12:05:18;;;;;;;;;;;;;;;9.49;57.73;99914.41;5030914;28;20437;-70
2020/12/15 12:07:48;;;;;;;;;;;;;;;9.42;58.37;99906.25;5029409;28;19932;-71
2020/12/15 12:10:15;;;;;;;;;;;;;;;9.33;58.46;99918.44;5029510;28;19929;-70
2020/12/15 12:12:41;;;;;;;;;;;;;;;9.19;59.02;99922.25;5029217;28;19925;-69
2020/12/15 12:15:08;;;;;;;;;;;;;;;9.05;59.90;99911.41;5042922;28;20448;-70
2020/12/15 12:17:34;;;;;;;;;;;;;;;8.99;59.76;99917.72;5029263;28;19936;-70
2020/12/15 12:20:01;;;;;;;;;;;;;;;8.88;60.32;99920.25;5029514;28;19932;-70
2020/12/15 12:22:28;;;;;;;;;;;;;;;8.97;60.76;99908.13;4998816;28;19929;-70
2020/12/15 12:24:54;;;;;;;;;;;;;;;8.95;60.84;99910.22;5035094;28;20120;-70
2020/12/15 12:27:20;;;;;;;;;;;;;;;8.88;63.13;99914.81;5021264;28;19940;-71
2020/12/15 12:29:47;;;;;;;;;;;;;;;8.75;63.54;99915.66;4993502;28;19933;-70
2020/12/15 12:32:13;;;;;;;;;;;;;;;8.64;62.63;99916.34;5015060;28;20384;-70
2020/12/15 12:34:39;;;;;;;;;;;;;;;8.63;62.37;99914.66;5014840;28;19925;-71
2020/12/15 12:37:09;;;;;;;;;;;;;;;8.57;61.96;99918.22;5030519;28;19925;-70
2020/12/15 12:39:37;;;;;;;;;;;;;;;8.54;62.06;99918.63;5028356;28;19925;-70
2020/12/15 12:42:06;;;;;;;;;;;;;;;8.54;61.90;99918.63;5014651;28;19925;-70
2020/12/15 12:44:33;;;;;;;;;;;;;;;8.65;61.57;99918.84;5014115;28;19932;-69
2020/12/15 12:47:00;;;;;;;;;;;;;;;8.77;61.71;99912.75;4997766;28;19944;-70
2020/12/15 12:49:26;;;;;;;;;;;;;;;8.85;60.69;99907.09;5030188;28;20383;-70
2020/12/15 12:51:53;;;;;;;;;;;;;;;8.95;60.34;99899.34;5030770;28;20391;-70
2020/12/15 12:54:20;;;;;;;;;;;;;;;9.03;60.00;99890.94;5014128;28;19925;-70
2020/12/15 12:56:47;;;;;;;;;;;;;;;9.10;59.46;99886.31;5028829;28;19964;-70
2020/12/15 12:59:14;;;;;;;;;;;;;;;9.23;58.70;99890.88;5034659;28;19957;-70
2020/12/15 13:01:41;;;;;;;;;;;;;;;9.26;58.68;99899.44;5020009;28;19926;-70
2020/12/15 13:04:08;;;;;;;;;;;;;;;9.33;58.74;99899.41;5032861;28;20035;-70
2020/12/15 13:06:34;;;;;;;;;;;;;;;9.41;58.10;99902.69;5029227;28;19932;-70
2020/12/15 13:09:00;;;;;;;;;;;;;;;9.41;58.08;99910.88;5031184;28;19936;-70